Time;durP1;ratioP1;P1;durP2;ratioP2;P2;SDS_P1;SDS_P2;PMS_P1;PMS_P2;Temp;Humidity;BMP_temperature;BMP_pressure;BME280_temperature;BME280_humidity;BME280_pressure;Samples;Min_cycle;Max_cycle;Signal;HPM_P1;HPM_P2
2022/08/28 04:16:49;;;;;;;18.77;9.43;;;;;;;17.93;100.00;100171.00;5311877;23;20050;-66
2022/08/28 04:19:17;;;;;;;24.13;10.10;;;;;;;17.88;100.00;100159.03;4973361;28;20039;-66
2022/08/28 04:21:43;;;;;;;;;;;;;;;17.95;100.00;100171.63;4973997;28;20090;-65
2022/08/28 04:24:08;;;;;;;19.65;9.70;;;;;;;17.97;100.00;100172.22;4972370;28;19922;-66
2022/08/28 04:26:35;;;;;;;23.80;10.35;;;;;;;17.98;100.00;100179.25;4973568;28;20035;-67
2022/08/28 04:29:02;;;;;;;21.42;9.75;;;;;;;18.00;100.00;100177.19;4973430;28;20070;-66
2022/08/28 04:31:28;;;;;;;23.60;9.80;;;;;;;18.03;100.00;100182.09;4973670;28;20047;-64
2022/08/28 04:33:54;;;;;;;18.92;8.77;;;;;;;18.03;100.00;100182.94;4973556;28;20038;-65
2022/08/28 04:36:20;;;;;;;18.20;8.40;;;;;;;18.01;100.00;100179.66;4972133;28;20070;-65
2022/08/28 04:38:46;;;;;;;20.38;10.38;;;;;;;18.04;100.00;100189.97;4973267;28;20086;-66
2022/08/28 04:41:14;;;;;;;26.23;9.90;;;;;;;18.07;100.00;100186.03;4973207;28;20039;-66
2022/08/28 04:43:41;;;;;;;26.90;10.38;;;;;;;18.09;100.00;100186.59;4973271;28;20169;-66
2022/08/28 04:46:10;;;;;;;58.75;21.85;;;;;;;18.11;100.00;100190.72;4972992;28;20051;-66
2022/08/28 04:48:36;;;;;;;40.05;15.15;;;;;;;18.09;100.00;100192.00;4973199;28;20039;-66
2022/08/28 04:51:05;;;;;;;24.92;10.88;;;;;;;18.04;100.00;100195.34;4972725;28;20126;-66
2022/08/28 04:53:31;;;;;;;27.63;11.48;;;;;;;17.99;100.00;100194.38;4973158;28;20106;-65
2022/08/28 04:55:59;;;;;;;25.77;10.60;;;;;;;18.01;100.00;100195.00;4973033;28;20054;-66
2022/08/28 04:58:25;;;;;;;26.75;11.15;;;;;;;18.00;100.00;100193.34;4973086;28;20074;-65
2022/08/28 05:00:52;;;;;;;28.65;12.18;;;;;;;18.02;100.00;100199.34;4972201;28;20030;-66
2022/08/28 05:03:18;;;;;;;23.88;11.25;;;;;;;18.07;100.00;100194.94;4972901;28;20089;-66
2022/08/28 05:05:45;;;;;;;24.83;10.98;;;;;;;18.09;100.00;100200.91;4972964;28;20034;-65
2022/08/28 05:08:12;;;;;;;;;;;;;;;18.15;100.00;100201.88;4973204;28;20050;-66
2022/08/28 05:10:39;;;;;;;21.38;10.35;;;;;;;18.16;100.00;100204.34;4972397;28;19914;-66
2022/08/28 05:13:05;;;;;;;18.83;9.38;;;;;;;18.19;100.00;100203.06;4972798;28;20077;-65
2022/08/28 05:15:32;;;;;;;20.75;9.27;;;;;;;18.21;100.00;100205.56;4972590;28;20458;-66
2022/08/28 05:17:58;;;;;;;22.05;10.65;;;;;;;18.23;100.00;100208.84;4972796;28;20038;-67
2022/08/28 05:20:24;;;;;;;19.80;9.73;;;;;;;18.25;100.00;100212.13;4972389;28;20459;-66
2022/08/28 05:22:49;;;;;;;23.98;9.82;;;;;;;18.27;100.00;100208.19;4972652;28;20046;-66
2022/08/28 05:25:15;;;;;;;23.33;10.00;;;;;;;18.30;100.00;100202.34;4972586;28;20034;-66
2022/08/28 05:27:40;;;;;;;24.73;10.93;;;;;;;18.33;100.00;100201.06;4972647;28;20070;-67
2022/08/28 05:30:07;;;;;;;24.80;10.13;;;;;;;18.36;100.00;100203.31;4972214;28;20114;-65
2022/08/28 05:32:33;;;;;;;21.27;10.02;;;;;;;18.35;100.00;100205.19;4972578;28;20066;-65
2022/08/28 05:34:58;;;;;;;27.75;10.27;;;;;;;18.36;100.00;100203.31;4972187;28;20047;-65
2022/08/28 05:37:24;;;;;;;19.00;9.88;;;;;;;18.40;100.00;100209.91;4972353;28;20138;-66
2022/08/28 05:39:50;;;;;;;23.70;10.50;;;;;;;18.44;100.00;100208.41;4972219;28;20023;-65
2022/08/28 05:42:15;;;;;;;22.80;10.38;;;;;;;18.45;100.00;100215.44;4972448;28;20117;-66
2022/08/28 05:44:40;;;;;;;22.88;10.50;;;;;;;18.47;100.00;100217.94;4971153;28;20541;-65
2022/08/28 05:47:06;;;;;;;21.55;10.00;;;;;;;18.48;100.00;100217.69;4972253;28;20035;-65
2022/08/28 05:49:31;;;;;;;21.63;10.80;;;;;;;18.52;100.00;100216.19;4972050;28;20109;-65
2022/08/28 05:51:57;;;;;;;21.35;9.85;;;;;;;18.54;100.00;100215.97;4972451;28;20385;-66
2022/08/28 05:54:22;;;;;;;21.83;10.20;;;;;;;18.52;100.00;100213.50;4972461;28;20073;-65
2022/08/28 05:56:48;;;;;;;22.00;10.35;;;;;;;18.57;100.00;100215.50;4972287;28;20128;-65
2022/08/28 05:59:15;;;;;;;24.33;11.27;;;;;;;18.61;100.00;100219.41;4972139;28;20117;-65
2022/08/28 06:01:44;;;;;;;20.60;10.45;;;;;;;18.57;100.00;100220.91;4972372;28;20041;-65
2022/08/28 06:04:14;;;;;;;19.17;9.68;;;;;;;18.63;100.00;100228.09;4972387;28;20125;-65
2022/08/28 06:06:40;;;;;;;18.90;9.30;;;;;;;18.67;100.00;100232.84;4972268;28;20043;-64
2022/08/28 06:09:28;;;;;;;24.40;10.37;;;;;;;18.72;100.00;100232.16;4972100;28;20035;-65
2022/08/28 06:11:55;;;;;;;26.77;10.38;;;;;;;18.78;100.00;100227.72;4972474;28;20105;-64
2022/08/28 06:14:20;;;;;;;25.65;10.43;;;;;;;18.78;100.00;100227.72;4976084;28;20081;-65
2022/08/28 06:16:52;;;;;;;20.45;10.18;;;;;;;18.84;100.00;100226.81;4975943;28;20074;-65
2022/08/28 06:19:21;;;;;;;17.73;8.90;;;;;;;18.86;100.00;100230.13;4974445;28;20043;-65
2022/08/28 06:21:50;;;;;;;21.80;9.80;;;;;;;18.90;100.00;100237.50;4975976;28;20062;-64
2022/08/28 06:24:16;;;;;;;23.85;9.98;;;;;;;18.94;100.00;100237.91;4975780;28;20049;-65
2022/08/28 06:26:42;;;;;;;22.48;9.38;;;;;;;18.95;100.00;100234.16;4974440;28;20042;-63
2022/08/28 06:29:10;;;;;;;20.48;9.68;;;;;;;18.96;100.00;100241.19;4974092;28;20130;-66
2022/08/28 06:31:36;;;;;;;18.15;9.60;;;;;;;19.02;100.00;100242.97;4975769;28;20462;-65
2022/08/28 06:34:02;;;;;;;19.15;8.63;;;;;;;18.98;100.00;100247.19;4975640;28;20039;-65
2022/08/28 06:36:31;;;;;;;17.65;8.60;;;;;;;19.01;100.00;100252.13;4975189;28;20054;-64
2022/08/28 06:38:57;;;;;;;21.58;9.43;;;;;;;19.10;100.00;100252.63;4975429;28;20039;-65
2022/08/28 06:41:24;;;;;;;16.17;9.32;;;;;;;18.98;100.00;100249.91;4975740;28;20569;-66
2022/08/28 06:43:49;;;;;;;16.13;8.00;;;;;;;18.97;100.00;100248.22;4975499;28;20062;-65
2022/08/28 06:46:15;;;;;;;16.50;7.75;;;;;;;19.01;100.00;100245.91;4974087;28;20142;-66
2022/08/28 06:48:41;;;;;;;19.63;8.77;;;;;;;19.00;100.00;100253.19;4975295;28;20078;-65
2022/08/28 06:51:09;;;;;;;17.83;8.80;;;;;;;19.03;100.00;100250.00;4974888;28;20043;-66
2022/08/28 06:53:37;;;;;;;19.88;9.25;;;;;;;19.08;100.00;100255.56;4975059;28;20061;-65
2022/08/28 06:56:06;;;;;;;19.45;9.30;;;;;;;19.11;100.00;100255.13;4974931;28;20484;-65
2022/08/28 06:58:32;;;;;;;17.60;8.38;;;;;;;19.12;100.00;100259.47;4975207;28;20047;-66
2022/08/28 07:01:09;;;;;;;17.13;9.27;;;;;;;19.25;100.00;100255.75;4974790;28;20476;-66
2022/08/28 07:03:35;;;;;;;15.15;7.78;;;;;;;19.19;100.00;100267.47;4975182;28;20038;-65
2022/08/28 07:06:03;;;;;;;13.70;7.93;;;;;;;19.31;100.00;100260.22;4975019;28;20050;-66
2022/08/28 07:08:31;;;;;;;12.23;6.80;;;;;;;19.30;100.00;100271.25;4975026;28;20042;-66
2022/08/28 07:10:58;;;;;;;14.32;7.32;;;;;;;19.33;100.00;100274.31;4974652;28;20397;-66
2022/08/28 07:13:24;;;;;;;18.10;7.47;;;;;;;19.45;100.00;100271.66;4972483;28;20038;-66
2022/08/28 07:15:50;;;;;;;14.32;7.18;;;;;;;19.53;100.00;100271.31;4974701;28;20034;-66
2022/08/28 07:18:16;;;;;;;14.07;7.13;;;;;;;19.60;100.00;100280.19;4974811;28;20162;-66
2022/08/28 07:20:42;;;;;;;12.05;6.63;;;;;;;19.60;100.00;100280.19;4974015;28;20043;-65
2022/08/28 07:23:08;;;;;;;13.93;7.20;;;;;;;19.67;100.00;100280.91;4974053;28;20043;-65
2022/08/28 07:25:38;;;;;;;18.67;8.38;;;;;;;19.69;100.00;100273.41;4974640;28;20046;-66
2022/08/28 07:28:03;;;;;;;12.75;6.80;;;;;;;19.72;100.00;100278.31;4974552;28;20117;-65
2022/08/28 07:30:29;;;;;;;17.60;7.53;;;;;;;19.78;100.00;100282.81;4973836;28;20039;-65
2022/08/28 07:32:54;;;;;;;16.70;7.25;;;;;;;19.87;100.00;100285.16;4974312;28;20082;-65
2022/08/28 07:35:20;;;;;;;14.77;7.90;;;;;;;19.94;98.87;100280.47;4974392;28;20117;-66
2022/08/28 07:37:45;;;;;;;12.75;6.68;;;;;;;20.01;98.19;100292.81;4974309;28;20399;-65
2022/08/28 07:40:11;;;;;;;14.50;6.32;;;;;;;20.03;96.58;100279.06;4973588;28;20034;-64
2022/08/28 07:45:21;;;;;;;9.20;5.95;;;;;;;20.18;95.42;100290.22;4974206;28;20376;-65
2022/08/28 07:47:47;;;;;;;12.25;6.13;;;;;;;20.24;94.42;100283.06;4974082;28;20039;-65
2022/08/28 07:50:12;;;;;;;11.10;6.25;;;;;;;20.25;94.30;100284.72;4973236;28;20043;-66
2022/08/28 07:52:38;;;;;;;20.83;7.15;;;;;;;20.32;94.19;100288.94;4973957;28;20034;-66
2022/08/28 07:55:05;;;;;;;10.93;6.70;;;;;;;20.35;93.14;100292.25;4972699;28;20051;-65
2022/08/28 07:57:30;;;;;;;10.98;5.97;;;;;;;20.45;92.96;100297.91;4973731;28;20050;-65
2022/08/28 07:59:58;;;;;;;11.25;6.38;;;;;;;20.43;93.10;100308.09;4973164;28;20051;-66
2022/08/28 08:02:23;;;;;;;10.48;6.22;;;;;;;20.56;93.04;100299.78;4973652;28;20049;-65
2022/08/28 08:04:49;;;;;;;9.73;5.68;;;;;;;20.47;91.70;100299.28;4974027;28;20117;-65
2022/08/28 08:07:16;;;;;;;10.50;5.75;;;;;;;20.47;92.35;100301.19;4973564;28;20138;-65
2022/08/28 08:09:43;;;;;;;8.65;5.53;;;;;;;20.62;92.33;100306.94;4973214;28;20385;-65
2022/08/28 08:12:10;;;;;;;12.10;6.28;;;;;;;20.64;90.84;100312.94;4973410;28;20157;-66
2022/08/28 08:14:38;;;;;;;12.60;6.45;;;;;;;20.70;90.25;100314.69;4973853;28;20070;-65
2022/08/28 08:17:04;;;;;;;14.57;7.25;;;;;;;20.68;88.06;100314.13;4971996;28;20046;-66
2022/08/28 08:19:30;;;;;;;16.93;6.80;;;;;;;20.83;88.50;100314.44;4973063;28;20038;-50
2022/08/28 08:21:56;;;;;;;11.35;6.35;;;;;;;21.02;88.56;100322.38;4972500;28;20686;-52
2022/08/28 08:24:27;;;;;;;11.68;6.50;;;;;;;21.11;87.06;100326.34;4972407;28;20035;-42
2022/08/28 08:26:59;;;;;;;13.25;6.93;;;;;;;21.28;85.93;100329.13;4972001;28;20054;-50
2022/08/28 08:29:25;;;;;;;9.50;5.35;;;;;;;21.37;86.17;100328.53;4972741;28;20066;-45
2022/08/28 08:32:03;;;;;;;19.00;9.50;;;;;;;21.43;86.27;100326.72;4972261;28;20376;-49
2022/08/28 08:34:31;;;;;;;12.73;6.53;;;;;;;21.32;84.88;100333.00;4972886;28;20798;-48
2022/08/28 08:36:56;;;;;;;12.10;5.40;;;;;;;21.46;85.77;100339.81;4973039;28;20504;-48
2022/08/28 08:39:22;;;;;;;13.55;6.22;;;;;;;21.33;84.07;100335.50;4972783;28;20129;-48
2022/08/28 18:00:24;;;;;;;3.50;2.75;;;;;;;24.61;51.43;100225.06;5068895;28;20386;-69
2022/08/28 18:02:50;;;;;;;3.95;2.85;;;;;;;24.57;51.91;100223.94;5068902;28;20044;-70
2022/08/28 18:05:17;;;;;;;4.57;2.58;;;;;;;24.53;52.64;100231.03;5068851;28;20059;-70
2022/08/28 18:07:42;;;;;;;5.85;3.60;;;;;;;24.48;52.98;100239.97;5068915;28;20037;-69
2022/08/28 18:10:10;;;;;;;5.45;3.20;;;;;;;24.48;54.04;100237.25;5068410;28;20035;-70
2022/08/28 18:12:37;;;;;;;3.40;2.78;;;;;;;24.47;55.41;100241.06;5068234;28;20033;-70
2022/08/28 18:15:04;;;;;;;5.13;2.67;;;;;;;24.40;56.59;100235.06;5068662;28;20036;-69
2022/08/28 18:17:30;;;;;;;;;;;;;;;24.41;57.55;100239.41;5067014;28;20036;-69
2022/08/28 18:19:56;;;;;;;3.80;2.70;;;;;;;24.32;58.68;100241.78;5068177;28;19965;-68
2022/08/28 18:22:22;;;;;;;5.80;2.95;;;;;;;24.08;59.72;100246.81;5068257;28;20651;-69
2022/08/28 18:24:53;;;;;;;5.05;2.97;;;;;;;24.01;62.55;100248.94;5068278;28;20040;-67
2022/08/28 18:27:19;;;;;;;4.45;3.40;;;;;;;23.95;61.89;100251.88;5068188;28;20429;-69
2022/08/28 18:29:45;;;;;;;5.53;3.22;;;;;;;23.72;65.84;100258.50;5068081;28;20091;-68
2022/08/28 18:32:12;;;;;;;5.40;3.13;;;;;;;23.64;65.75;100264.41;5068144;28;20041;-68
2022/08/28 18:34:38;;;;;;;3.53;2.78;;;;;;;23.40;67.38;100270.13;5055660;28;20406;-69
2022/08/28 18:37:03;;;;;;;4.22;2.95;;;;;;;23.26;69.58;100269.75;5058398;28;20041;-69
2022/08/28 18:39:29;;;;;;;6.97;5.13;;;;;;;23.14;68.51;100260.09;5057996;28;20037;-69
2022/08/28 18:41:54;;;;;;;7.38;3.45;;;;;;;23.15;67.04;100269.91;5056507;28;20025;-68
2022/08/28 18:44:20;;;;;;;6.03;3.42;;;;;;;22.90;68.60;100262.28;5059172;28;20367;-68
2022/08/28 18:46:46;;;;;;;5.03;3.60;;;;;;;22.93;68.25;100276.16;5057439;28;20033;-68
2022/08/28 18:49:12;;;;;;;8.60;4.07;;;;;;;22.74;68.89;100283.78;5056261;28;20490;-68
2022/08/28 18:51:42;;;;;;;6.40;4.30;;;;;;;22.57;70.55;100274.91;5057140;28;20051;-65
2022/08/28 18:54:09;;;;;;;4.18;3.17;;;;;;;22.55;70.10;100279.72;5057725;28;20041;-65
2022/08/28 18:56:34;;;;;;;6.30;3.40;;;;;;;22.39;70.85;100281.44;5056337;28;20227;-65
2022/08/28 18:59:00;;;;;;;5.00;3.10;;;;;;;22.19;73.27;100283.84;5055457;28;20028;-63
2022/08/28 19:01:27;;;;;;;5.57;3.55;;;;;;;22.06;74.64;100286.88;5058591;28;20069;-65
2022/08/28 19:03:53;;;;;;;5.55;3.55;;;;;;;22.02;74.78;100288.44;5060611;28;20041;-64
2022/08/28 19:06:19;;;;;;;7.17;3.70;;;;;;;21.83;76.09;100299.53;5057143;28;20112;-65
2022/08/28 19:08:44;;;;;;;4.75;3.17;;;;;;;21.78;76.67;100304.88;5047544;28;20160;-65
2022/08/28 19:11:12;;;;;;;7.45;3.45;;;;;;;21.71;77.47;100296.06;5037445;28;20085;-65
2022/08/28 19:13:38;;;;;;;5.45;3.20;;;;;;;21.61;77.25;100301.31;5034457;28;20593;-65
2022/08/28 19:16:04;;;;;;;5.65;3.55;;;;;;;21.43;79.54;100298.81;5038254;28;20044;-64
2022/08/28 19:18:30;;;;;;;5.93;3.70;;;;;;;21.31;79.78;100302.41;5044050;28;20451;-65
2022/08/28 19:21:21;;;;;;;5.35;3.70;;;;;;;21.24;79.42;100296.28;5047045;28;20082;-65
2022/08/28 19:23:49;;;;;;;4.70;3.15;;;;;;;21.12;81.13;100303.63;5043116;28;20057;-66
2022/08/28 19:26:14;;;;;;;4.68;3.35;;;;;;;21.16;81.75;100304.78;5044204;28;20037;-66
2022/08/28 19:28:42;;;;;;;9.10;3.30;;;;;;;21.08;81.35;100308.72;5042354;28;20041;-65
2022/08/28 19:31:07;;;;;;;7.65;3.22;;;;;;;21.01;82.22;100323.47;5043066;28;20494;-65
2022/08/28 19:33:33;;;;;;;6.28;3.75;;;;;;;20.91;84.68;100324.06;5043242;28;20040;-65
2022/08/28 19:35:59;;;;;;;4.75;3.50;;;;;;;20.66;85.66;100321.63;5044516;28;20170;-65
2022/08/28 19:38:24;;;;;;;5.57;3.88;;;;;;;20.65;86.16;100327.28;5042563;28;20087;-66
2022/08/28 19:40:49;;;;;;;8.00;3.70;;;;;;;20.61;86.87;100326.94;5042236;28;20068;-65
2022/08/28 19:43:15;;;;;;;6.45;3.80;;;;;;;20.50;88.41;100327.78;5042831;28;20450;-66
2022/08/28 19:45:42;;;;;;;5.90;3.90;;;;;;;20.53;87.20;100333.53;5044712;28;20432;-65
2022/08/28 19:48:07;;;;;;;6.05;4.05;;;;;;;20.47;87.46;100337.16;5047407;28;20033;-66
2022/08/28 19:50:33;;;;;;;5.82;3.60;;;;;;;20.49;87.09;100336.97;5046073;28;20125;-65
2022/08/28 19:52:58;;;;;;;6.20;4.07;;;;;;;20.40;87.29;100333.72;5045253;28;20167;-66
2022/08/28 19:55:26;;;;;;;8.18;4.00;;;;;;;20.27;89.25;100340.19;5042599;28;20091;-66
2022/08/28 19:57:52;;;;;;;6.20;3.90;;;;;;;20.22;89.87;100342.81;5041163;28;20038;-65
2022/08/28 20:00:22;;;;;;;6.72;4.78;;;;;;;20.15;89.77;100342.09;5044849;28;20104;-65
2022/08/28 20:02:50;;;;;;;6.63;4.32;;;;;;;20.10;90.46;100346.56;5040243;28;20116;-65
2022/08/28 20:05:19;;;;;;;7.50;4.05;;;;;;;20.10;90.57;100349.25;5040912;28;20120;-66
2022/08/28 20:07:48;;;;;;;8.68;4.15;;;;;;;20.05;89.96;100355.34;5044554;28;20026;-65
2022/08/28 20:10:15;;;;;;;6.60;4.45;;;;;;;20.02;89.50;100348.53;5043473;28;20053;-66
2022/08/28 20:12:42;;;;;;;5.72;4.43;;;;;;;19.91;90.11;100357.44;5039850;28;20041;-66
2022/08/28 20:15:08;;;;;;;;;;;;;;;19.87;91.01;100350.03;5042843;28;20231;-66
2022/08/28 20:17:34;;;;;;;7.55;4.65;;;;;;;19.83;91.79;100348.88;5041827;28;20022;-66
2022/08/28 20:20:01;;;;;;;7.28;4.82;;;;;;;19.78;92.74;100352.25;5041242;28;20181;-66
2022/08/28 20:22:27;;;;;;;11.38;5.03;;;;;;;19.87;92.28;100355.44;5042999;28;20506;-65
2022/08/28 20:24:53;;;;;;;7.75;4.63;;;;;;;19.78;93.05;100349.53;5041010;28;20033;-66
2022/08/28 20:27:20;;;;;;;8.15;4.90;;;;;;;19.76;93.99;100352.47;5042899;28;20033;-66
2022/08/28 20:29:45;;;;;;;7.72;5.20;;;;;;;19.77;93.43;100358.72;5039817;28;20040;-66
2022/08/28 20:32:10;;;;;;;6.05;4.25;;;;;;;19.80;91.17;100352.81;5044626;28;20116;-66
2022/08/28 20:34:36;;;;;;;8.90;5.00;;;;;;;20.02;89.79;100353.94;5039857;28;20059;-66
2022/08/28 20:37:02;;;;;;;8.68;4.50;;;;;;;20.02;89.47;100359.34;5046561;28;20083;-65
2022/08/28 20:39:28;;;;;;;8.10;4.85;;;;;;;20.13;87.56;100355.00;5052369;28;20534;-66
2022/08/28 20:41:53;;;;;;;9.02;5.00;;;;;;;20.23;86.05;100363.38;5052700;28;20047;-66
2022/08/28 20:44:19;;;;;;;8.18;5.10;;;;;;;20.32;85.72;100364.66;5052571;28;20040;-65
2022/08/28 20:46:45;;;;;;;8.25;4.78;;;;;;;20.33;85.75;100363.59;5052607;28;20494;-65
2022/08/28 20:49:12;;;;;;;7.38;4.28;;;;;;;20.45;85.29;100363.66;5050562;28;20040;-65
2022/08/28 20:51:51;;;;;;;7.18;4.72;;;;;;;20.46;85.13;100364.47;5052769;28;20072;-65
2022/08/28 20:54:20;;;;;;;8.80;4.22;;;;;;;20.37;85.90;100360.44;5052436;28;20041;-65
2022/08/28 20:56:46;;;;;;;8.60;4.70;;;;;;;20.30;86.00;100361.38;5052238;28;20044;-65
2022/08/28 20:59:12;;;;;;;6.88;4.60;;;;;;;20.18;87.69;100365.13;5051711;28;20135;-65
2022/08/28 21:01:37;;;;;;;8.98;5.03;;;;;;;20.07;89.07;100361.34;5052468;28;20107;-65
2022/08/28 21:04:03;;;;;;;5.72;4.63;;;;;;;19.94;91.00;100362.38;5047653;28;20113;-65
2022/08/28 21:06:29;;;;;;;8.85;5.18;;;;;;;20.04;87.96;100369.94;5032666;28;20043;-66
2022/08/28 21:08:55;;;;;;;8.68;4.95;;;;;;;19.92;90.87;100369.09;5031918;28;20029;-66
2022/08/28 21:11:22;;;;;;;8.65;4.55;;;;;;;19.71;94.19;100371.25;5030910;28;20522;-66
2022/08/28 21:13:47;;;;;;;7.43;5.13;;;;;;;19.55;95.80;100374.56;5032127;28;20518;-66
2022/08/28 21:16:14;;;;;;;7.70;5.15;;;;;;;19.40;97.55;100377.69;5032064;28;20077;-66
2022/08/28 21:18:40;;;;;;;7.18;5.15;;;;;;;19.29;97.21;100373.03;5032101;28;20063;-66
2022/08/28 21:21:05;;;;;;;6.93;4.78;;;;;;;19.19;97.42;100375.47;5031490;28;20483;-66
2022/08/28 21:23:31;;;;;;;9.15;5.22;;;;;;;19.12;97.19;100388.22;5032142;28;20038;-66
2022/08/28 21:25:58;;;;;;;8.35;5.10;;;;;;;19.07;98.32;100378.09;5032030;28;20045;-66
2022/08/28 21:28:24;;;;;;;9.13;5.13;;;;;;;18.95;99.87;100378.00;5031876;28;20044;-66
2022/08/28 21:30:50;;;;;;;11.60;5.28;;;;;;;18.91;100.00;100382.22;5031392;28;20045;-66
2022/08/28 21:33:15;;;;;;;9.00;5.60;;;;;;;18.89;100.00;100391.56;5031694;28;20152;-66
2022/08/28 21:35:41;;;;;;;8.35;5.47;;;;;;;18.81;100.00;100383.78;5031587;28;20044;-66
2022/08/28 21:38:06;;;;;;;9.00;5.13;;;;;;;18.96;98.98;100378.84;5030718;28;20404;-67
2022/08/28 21:41:11;;;;;;;8.10;5.32;;;;;;;18.83;99.34;100376.28;5088897;28;20332;-66
2022/08/28 21:43:41;;;;;;;8.13;5.57;;;;;;;18.75;99.97;100379.28;5089330;28;20102;-67
2022/08/28 21:46:07;;;;;;;8.73;4.95;;;;;;;18.75;100.00;100385.50;5071906;28;20063;-66
2022/08/28 21:48:36;;;;;;;11.15;5.10;;;;;;;18.66;100.00;100389.53;5089141;28;20028;-67
2022/08/28 21:51:06;;;;;;;9.45;5.75;;;;;;;18.63;100.00;100396.16;5088309;28;20036;-67
2022/08/28 21:53:31;;;;;;;12.93;6.45;;;;;;;18.53;100.00;100382.38;5086447;28;20048;-67
2022/08/28 21:55:57;;;;;;;10.77;5.38;;;;;;;18.75;98.44;100390.06;5088685;28;20086;-67
2022/08/28 21:58:22;;;;;;;13.38;6.10;;;;;;;18.81;97.81;100386.47;5088972;28;20043;-67
